Time;durP1;ratioP1;P1;durP2;ratioP2;P2;SDS_P1;SDS_P2;PMS_P1;PMS_P2;Temp;Humidity;BMP_temperature;BMP_pressure;BME280_temperature;BME280_humidity;BME280_pressure;Samples;Min_cycle;Max_cycle;Signal;HPM_P1;HPM_P2
2023/04/04 00:01:24;;;;;;;7.60;4.68;;;1.00;99.90;;;;;;5054464;28;20485;-54
2023/04/04 00:03:50;;;;;;;6.15;4.68;;;1.00;99.90;;;;;;5053265;28;20036;-56
2023/04/04 00:06:19;;;;;;;5.97;4.88;;;1.00;99.90;;;;;;5053242;28;20031;-53
2023/04/04 00:08:45;;;;;;;7.32;4.65;;;0.90;79.60;;;;;;5054599;28;20032;-50
2023/04/04 00:11:12;;;;;;;8.55;4.53;;;0.90;1.00;;;;;;5054293;28;20100;-54
2023/04/04 00:13:38;;;;;;;7.70;5.18;;;0.80;99.90;;;;;;5054268;28;20037;-56
2023/04/04 00:16:05;;;;;;;5.78;4.40;;;0.80;99.90;;;;;;5054032;28;20108;-55
2023/04/04 00:18:31;;;;;;;14.07;5.00;;;0.70;1.00;;;;;;5054326;28;20461;-55
2023/04/04 00:20:57;;;;;;;8.40;4.93;;;0.70;14.90;;;;;;5054109;28;20086;-56
2023/04/04 00:23:23;;;;;;;7.38;5.07;;;0.60;1.00;;;;;;5054178;28;20060;-54
2023/04/04 00:25:52;;;;;;;5.10;4.60;;;0.60;16.50;;;;;;5052893;28;20028;-53
2023/04/04 00:28:21;;;;;;;5.32;4.65;;;0.60;1.00;;;;;;5052862;28;20021;-54
2023/04/04 00:30:47;;;;;;;5.75;5.15;;;0.70;1.00;;;;;;5052671;28;20338;-51
2023/04/04 00:33:13;;;;;;;8.75;6.00;;;0.70;1.00;;;;;;5053998;28;20024;-51
2023/04/04 00:35:39;;;;;;;7.80;4.85;;;0.70;99.90;;;;;;5053965;28;20049;-51
2023/04/04 00:38:05;;;;;;;9.75;5.65;;;0.70;1.00;;;;;;5053619;28;20059;-56
2023/04/04 00:40:31;;;;;;;6.20;4.97;;;0.70;1.00;;;;;;5053825;28;20436;-50
2023/04/04 00:42:59;;;;;;;10.18;5.20;;;0.60;1.00;;;;;;5053627;28;20386;-54
2023/04/04 00:45:26;;;;;;;9.60;5.70;;;0.60;99.90;;;;;;5052205;28;20029;-55
2023/04/04 00:47:54;;;;;;;4.72;4.32;;;0.60;1.00;;;;;;5053638;28;20021;-53
2023/04/04 00:50:20;;;;;;;6.28;5.30;;;0.60;98.50;;;;;;5053572;28;20372;-55
2023/04/04 00:52:46;;;;;;;5.88;4.82;;;0.60;1.00;;;;;;5053173;28;20108;-53
2023/04/04 00:55:11;;;;;;;6.78;5.35;;;0.60;99.90;;;;;;5052946;28;20039;-52
2023/04/04 00:57:37;;;;;;;9.88;5.22;;;0.50;1.00;;;;;;5052839;28;20472;-50
2023/04/04 01:00:05;;;;;;;6.57;5.28;;;0.50;1.00;;;;;;5051353;28;20473;-55
2023/04/04 01:02:31;;;;;;;5.32;4.88;;;0.40;1.00;;;;;;5053086;28;20021;-51
2023/04/04 01:04:56;;;;;;;8.45;4.88;;;0.40;97.50;;;;;;5051343;28;20032;-49
2023/04/04 01:07:22;;;;;;;9.55;6.05;;;0.40;99.90;;;;;;5052214;28;20037;-52
2023/04/04 01:09:49;;;;;;;7.60;5.15;;;0.30;99.90;;;;;;5052082;28;20025;-54
2023/04/04 01:12:15;;;;;;;10.43;5.70;;;0.30;99.90;;;;;;5052199;28;20074;-50
2023/04/04 01:14:41;;;;;;;5.53;4.70;;;0.30;99.90;;;;;;5051577;28;20017;-51
2023/04/04 01:17:07;;;;;;;8.70;5.85;;;0.20;99.90;;;;;;5052936;28;20036;-52
2023/04/04 01:19:37;;;;;;;10.75;6.45;;;0.30;99.90;;;;;;5052350;28;20523;-54
2023/04/04 01:22:05;;;;;;;6.07;5.47;;;0.30;99.90;;;;;;5052098;28;20021;-58
2023/04/04 01:24:33;;;;;;;8.82;4.82;;;0.30;99.90;;;;;;5050822;28;20029;-59
2023/04/04 01:26:59;;;;;;;9.65;5.38;;;0.30;99.90;;;;;;5051972;28;20515;-58
2023/04/04 01:29:26;;;;;;;7.40;5.03;;;0.30;99.90;;;;;;5052652;28;20112;-56
2023/04/04 01:32:28;;;;;;;5.00;4.50;;;0.30;99.90;;;;;;5051391;28;20017;-51
2023/04/04 01:35:06;;;;;;;12.75;5.40;;;0.30;78.80;;;;;;5051147;28;20044;-51
2023/04/04 01:37:48;;;;;;;16.55;7.72;;;0.30;1.00;;;;;;5052848;28;20048;-53
2023/04/04 01:40:20;;;;;;;5.32;4.82;;;0.30;1.00;;;;;;5052722;28;20017;-50
2023/04/04 01:42:47;;;;;;;5.72;5.15;;;0.30;1.00;;;;;;5052680;28;20086;-53
2023/04/04 01:45:12;;;;;;;7.80;5.15;;;0.30;1.00;;;;;;5052412;28;20036;-52
2023/04/04 01:47:42;;;;;;;5.97;5.20;;;0.30;1.00;;;;;;5052559;28;20029;-51
2023/04/04 01:50:10;;;;;;;9.57;5.30;;;0.30;1.00;;;;;;5052443;28;20033;-49
2023/04/04 01:52:36;;;;;;;9.00;5.50;;;0.20;1.00;;;;;;5052404;28;20083;-50
2023/04/04 01:55:02;;;;;;;7.53;5.28;;;0.30;1.00;;;;;;5052347;28;20020;-55
2023/04/04 01:57:28;;;;;;;6.28;5.68;;;0.20;99.90;;;;;;5052345;28;20167;-51
2023/04/04 01:59:54;;;;;;;10.43;5.57;;;0.20;99.90;;;;;;5052240;28;20033;-52
2023/04/04 02:02:20;;;;;;;9.10;5.00;;;0.20;39.30;;;;;;5052292;28;20024;-52
2023/04/04 02:04:46;;;;;;;8.10;5.90;;;0.20;99.90;;;;;;5052341;28;20028;-48
2023/04/04 02:07:13;;;;;;;7.97;5.80;;;0.20;99.90;;;;;;5052081;28;20387;-56
2023/04/04 02:09:38;;;;;;;7.88;5.38;;;0.20;99.90;;;;;;5052178;28;20013;-53
2023/04/04 02:12:04;;;;;;;10.65;6.18;;;0.20;99.90;;;;;;5051671;28;20023;-54
2023/04/04 02:14:30;;;;;;;6.25;5.65;;;0.20;99.90;;;;;;5052157;28;20061;-53
2023/04/04 02:16:55;;;;;;;8.35;5.53;;;0.20;99.90;;;;;;5051940;28;20025;-49
2023/04/04 02:19:21;;;;;;;6.70;5.40;;;0.10;99.90;;;;;;5051786;28;20086;-53
2023/04/04 02:21:47;;;;;;;5.63;4.95;;;0.20;99.90;;;;;;5051990;28;20032;-51
2023/04/04 02:24:12;;;;;;;8.57;5.70;;;0.10;1.00;;;;;;5051764;28;20360;-51
2023/04/04 02:26:38;;;;;;;4.95;4.47;;;0.20;99.90;;;;;;5051760;28;20396;-51
2023/04/04 02:29:04;;;;;;;9.52;6.07;;;0.20;44.70;;;;;;5051861;28;20380;-58
2023/04/04 02:31:30;;;;;;;8.27;5.88;;;0.20;1.00;;;;;;5051873;28;20028;-54
2023/04/04 02:33:56;;;;;;;4.97;4.50;;;0.20;1.00;;;;;;5051664;28;20048;-55
2023/04/04 02:36:22;;;;;;;6.28;5.10;;;0.20;99.90;;;;;;5051814;28;20029;-55
2023/04/04 02:38:47;;;;;;;6.10;5.43;;;0.20;99.90;;;;;;5051684;28;20033;-54
2023/04/04 02:41:13;;;;;;;8.30;6.18;;;0.20;99.90;;;;;;5050224;28;20025;-49
2023/04/04 02:43:38;;;;;;;9.77;5.72;;;0.20;99.90;;;;;;5051698;28;20029;-51
2023/04/04 02:46:04;;;;;;;6.55;5.30;;;0.20;99.90;;;;;;5051281;28;20028;-56
2023/04/04 02:48:30;;;;;;;6.97;4.95;;;0.20;99.90;;;;;;5051652;28;20016;-52
2023/04/04 02:51:01;;;;;;;7.38;5.35;;;0.20;1.00;;;;;;5051499;28;20032;-55
2023/04/04 02:53:27;;;;;;;10.02;5.40;;;0.20;99.90;;;;;;5051592;28;20083;-52
2023/04/04 02:55:52;;;;;;;8.27;5.00;;;0.20;1.00;;;;;;5051443;28;20104;-56
2023/04/04 02:58:18;;;;;;;12.25;5.78;;;0.20;1.00;;;;;;5051556;28;20104;-56
2023/04/04 03:00:46;;;;;;;5.68;5.18;;;0.20;35.30;;;;;;5050278;28;20534;-52
2023/04/04 03:03:11;;;;;;;7.28;5.30;;;0.20;77.90;;;;;;5051395;28;20498;-54
2023/04/04 03:05:37;;;;;;;6.05;5.43;;;0.20;99.90;;;;;;5051416;28;20029;-53
2023/04/04 03:08:03;;;;;;;6.85;5.22;;;0.30;97.30;;;;;;5051235;28;20032;-49
2023/04/04 03:10:29;;;;;;;8.02;6.75;;;0.30;99.90;;;;;;5050077;28;20032;-53
2023/04/04 03:13:00;;;;;;;6.72;5.90;;;0.30;69.70;;;;;;5050926;28;20045;-54
2023/04/04 03:15:26;;;;;;;13.85;6.07;;;0.40;99.90;;;;;;5051365;28;20711;-53
2023/04/04 03:17:52;;;;;;;9.82;5.60;;;0.40;99.90;;;;;;5051257;28;20029;-55
2023/04/04 03:20:18;;;;;;;6.93;5.80;;;0.40;99.90;;;;;;5050951;28;20017;-49
2023/04/04 03:22:44;;;;;;;10.10;5.90;;;0.40;32.30;;;;;;5051002;28;20040;-57
2023/04/04 03:25:10;;;;;;;7.82;6.05;;;0.40;99.90;;;;;;5050312;28;20025;-54
2023/04/04 03:27:38;;;;;;;8.60;6.00;;;0.40;39.50;;;;;;5049083;28;20473;-54
2023/04/04 03:30:05;;;;;;;8.63;6.60;;;0.40;99.90;;;;;;5050567;28;20388;-54
2023/04/04 03:32:31;;;;;;;8.15;5.88;;;0.40;61.30;;;;;;5054057;28;20017;-54
2023/04/04 03:34:57;;;;;;;15.20;5.70;;;0.40;99.90;;;;;;5054977;28;20029;-54
2023/04/04 03:37:22;;;;;;;8.40;5.90;;;0.50;99.90;;;;;;5055005;28;20086;-55
2023/04/04 03:39:48;;;;;;;7.25;5.63;;;0.40;99.90;;;;;;5055062;28;20439;-52
2023/04/04 03:42:14;;;;;;;7.85;6.03;;;0.50;1.00;;;;;;5054939;28;20067;-52
2023/04/04 03:44:40;;;;;;;8.05;5.22;;;0.40;1.00;;;;;;5054937;28;20652;-51
2023/04/04 03:47:06;;;;;;;10.65;5.28;;;0.40;1.00;;;;;;5054733;28;20448;-53
2023/04/04 03:49:32;;;;;;;7.70;5.10;;;0.40;99.90;;;;;;5054884;28;20023;-54
2023/04/04 03:51:58;;;;;;;5.93;5.32;;;0.40;1.00;;;;;;5052851;28;20056;-53
2023/04/04 03:54:26;;;;;;;7.78;5.65;;;0.30;1.00;;;;;;5054316;28;20049;-55
2023/04/04 03:56:52;;;;;;;7.35;5.70;;;0.30;1.00;;;;;;5053896;28;20427;-52
2023/04/04 03:59:18;;;;;;;9.02;5.45;;;0.30;1.00;;;;;;5053817;28;20019;-55
2023/04/04 04:01:44;;;;;;;10.85;6.50;;;0.30;33.00;;;;;;5053902;28;20460;-53
2023/04/04 04:04:09;;;;;;;8.13;5.78;;;0.30;1.00;;;;;;5054512;28;20387;-49
2023/04/04 04:06:36;;;;;;;7.25;5.45;;;0.30;1.00;;;;;;5054478;28;20033;-53
2023/04/04 04:09:02;;;;;;;7.32;5.28;;;0.30;99.90;;;;;;5054398;28;20032;-52
2023/04/04 04:11:28;;;;;;;7.57;5.93;;;0.30;99.90;;;;;;5053095;28;20499;-53
2023/04/04 04:13:54;;;;;;;9.73;5.65;;;0.30;99.90;;;;;;5054059;28;20052;-50
2023/04/04 04:16:21;;;;;;;15.02;5.85;;;0.30;1.00;;;;;;5054370;28;20596;-54
2023/04/04 04:18:47;;;;;;;9.07;5.93;;;0.30;99.90;;;;;;5054328;28;20051;-54
2023/04/04 04:21:12;;;;;;;6.70;5.28;;;0.30;1.90;;;;;;5054092;28;20029;-51
2023/04/04 04:23:38;;;;;;;8.90;5.53;;;0.40;1.00;;;;;;5054429;28;20029;-54
2023/04/04 04:26:05;;;;;;;9.13;5.53;;;0.40;1.00;;;;;;5053869;28;20476;-51
2023/04/04 04:28:31;;;;;;;7.22;5.45;;;0.30;1.00;;;;;;5054034;28;20033;-49
2023/04/04 04:31:06;;;;;;;9.25;5.40;;;0.30;1.00;;;;;;5054137;28;20017;-54
2023/04/04 04:33:32;;;;;;;9.27;6.10;;;0.30;99.90;;;;;;5052700;28;20507;-53
2023/04/04 04:36:06;;;;;;;9.85;5.28;;;0.40;99.90;;;;;;5053806;28;20450;-53
2023/04/04 04:38:32;;;;;;;6.63;5.03;;;0.40;99.90;;;;;;5053899;28;20028;-52
2023/04/04 04:41:00;;;;;;;8.98;5.47;;;0.30;99.90;;;;;;5053794;28;20028;-51
2023/04/04 04:43:26;;;;;;;8.30;7.10;;;0.30;99.90;;;;;;5052426;28;20032;-57
2023/04/04 04:45:52;;;;;;;8.63;6.07;;;0.30;99.90;;;;;;5053484;28;20049;-53
2023/04/04 04:48:17;;;;;;;12.40;6.05;;;0.30;99.90;;;;;;5053730;28;20059;-54
2023/04/04 04:50:47;;;;;;;15.07;7.40;;;0.30;10.40;;;;;;5053805;28;20025;-51
2023/04/04 04:53:15;;;;;;;10.07;6.10;;;0.30;1.00;;;;;;5053492;28;20032;-53
2023/04/04 04:55:45;;;;;;;7.95;6.03;;;0.30;99.90;;;;;;5053664;28;20020;-51
2023/04/04 04:58:11;;;;;;;10.20;6.45;;;0.30;99.90;;;;;;5052223;28;20033;-54
2023/04/04 05:00:37;;;;;;;7.68;5.22;;;0.30;99.90;;;;;;5053482;28;20059;-54
2023/04/04 05:03:05;;;;;;;11.07;5.57;;;0.20;98.40;;;;;;5053405;28;20063;-55
2023/04/04 05:05:33;;;;;;;6.50;5.50;;;0.20;99.90;;;;;;5051980;28;20029;-57
2023/04/04 05:08:02;;;;;;;7.45;4.85;;;0.10;47.20;;;;;;5053173;28;20033;-52
2023/04/04 05:10:29;;;;;;;7.55;6.22;;;0.10;1.00;;;;;;5053335;28;20032;-54
2023/04/04 05:12:54;;;;;;;6.60;5.63;;;0.20;99.90;;;;;;5052395;28;20130;-53
2023/04/04 05:15:20;;;;;;;5.70;4.60;;;0.20;73.80;;;;;;5053139;28;20121;-54
2023/04/04 05:17:46;;;;;;;10.18;5.57;;;0.20;1.00;;;;;;5053245;28;20535;-54
2023/04/04 05:20:12;;;;;;;7.78;5.30;;;0.30;94.30;;;;;;5051550;28;20372;-48
2023/04/04 05:22:44;;;;;;;6.68;5.63;;;0.30;1.00;;;;;;5053116;28;20043;-52
2023/04/04 05:25:12;;;;;;;8.75;5.03;;;0.40;1.00;;;;;;5052788;28;20060;-49
2023/04/04 05:27:39;;;;;;;5.78;4.88;;;0.50;93.90;;;;;;5052998;28;20037;-52
2023/04/04 05:30:06;;;;;;;5.72;4.88;;;0.50;99.90;;;;;;5052665;28;20408;-53
2023/04/04 05:32:32;;;;;;;8.65;5.15;;;0.60;1.00;;;;;;5051442;28;20025;-54
2023/04/04 05:34:58;;;;;;;5.88;5.13;;;0.60;1.00;;;;;;5052681;28;20064;-52
2023/04/04 05:37:24;;;;;;;6.97;5.13;;;0.60;99.90;;;;;;5051445;28;20064;-53
2023/04/04 05:39:49;;;;;;;8.70;5.03;;;0.70;99.90;;;;;;5052849;28;20037;-55
2023/04/04 05:42:15;;;;;;;6.03;4.72;;;0.70;1.00;;;;;;5052782;28;20396;-56
2023/04/04 05:44:41;;;;;;;5.55;4.88;;;0.80;1.00;;;;;;5052586;28;20036;-55
2023/04/04 05:47:07;;;;;;;6.88;4.88;;;0.90;28.80;;;;;;5052512;28;20025;-51
2023/04/04 05:49:32;;;;;;;4.95;4.32;;;1.00;1.00;;;;;;5052412;28;20017;-56
2023/04/04 05:51:58;;;;;;;8.38;4.93;;;1.10;1.00;;;;;;5052369;28;20021;-50
2023/04/04 05:54:24;;;;;;;8.18;4.97;;;1.10;1.00;;;;;;5051872;28;20104;-53
2023/04/04 05:56:49;;;;;;;4.50;4.10;;;1.20;99.90;;;;;;5052411;28;20036;-55
2023/04/04 05:59:16;;;;;;;6.85;5.40;;;1.20;99.90;;;;;;5052283;28;20500;-54
2023/04/04 06:01:42;;;;;;;8.73;4.85;;;1.20;99.90;;;;;;5052473;28;20013;-57
2023/04/04 06:04:07;;;;;;;5.57;4.53;;;1.30;99.90;;;;;;5051939;28;20043;-56
2023/04/04 06:06:34;;;;;;;5.68;4.70;;;1.30;29.60;;;;;;5052289;28;20025;-54
2023/04/04 06:09:00;;;;;;;7.30;4.40;;;1.20;31.90;;;;;;5051949;28;20024;-54
2023/04/04 06:11:26;;;;;;;5.03;4.53;;;1.10;1.00;;;;;;5052185;28;20025;-49
2023/04/04 06:13:53;;;;;;;5.57;4.22;;;1.10;40.00;;;;;;5051704;28;20099;-53
2023/04/04 06:16:19;;;;;;;6.72;4.68;;;1.10;80.40;;;;;;5051992;28;20052;-54
2023/04/04 06:18:45;;;;;;;8.27;5.20;;;1.10;94.80;;;;;;5050658;28;20025;-52
2023/04/04 06:21:12;;;;;;;4.88;4.45;;;1.10;99.90;;;;;;5051869;28;20091;-55
2023/04/04 06:23:38;;;;;;;7.72;5.25;;;1.20;99.90;;;;;;5051965;28;20033;-56
2023/04/04 06:26:04;;;;;;;6.43;4.30;;;1.20;99.90;;;;;;5051710;28;20051;-58
2023/04/04 06:28:30;;;;;;;6.32;4.82;;;1.20;99.90;;;;;;5051793;28;20032;-51
2023/04/04 06:30:55;;;;;;;11.73;5.45;;;1.20;99.90;;;;;;5051720;28;20025;-54
2023/04/04 06:33:21;;;;;;;6.05;5.45;;;1.10;99.90;;;;;;5050321;28;20021;-56
2023/04/04 06:35:47;;;;;;;9.15;5.10;;;1.20;99.90;;;;;;5051811;28;20025;-51
2023/04/04 06:38:12;;;;;;;13.38;5.97;;;1.20;99.90;;;;;;5051563;28;20029;-52
2023/04/04 06:40:38;;;;;;;8.82;5.70;;;1.40;99.90;;;;;;5051745;28;20037;-49
2023/04/04 06:43:03;;;;;;;6.82;4.63;;;1.30;99.90;;;;;;5051852;28;20064;-52
2023/04/04 06:45:32;;;;;;;6.55;5.20;;;1.40;99.90;;;;;;5051435;28;20387;-57
2023/04/04 06:47:58;;;;;;;5.82;4.68;;;1.40;99.90;;;;;;5051477;28;20017;-55
2023/04/04 06:50:24;;;;;;;7.63;4.75;;;1.50;99.90;;;;;;5051616;28;20024;-54
2023/04/04 06:52:51;;;;;;;6.15;4.35;;;1.40;1.00;;;;;;5050320;28;20032;-50
2023/04/04 06:55:17;;;;;;;5.28;4.78;;;1.50;1.00;;;;;;5051340;28;20017;-58
2023/04/04 06:57:43;;;;;;;5.88;4.40;;;1.50;1.00;;;;;;5051595;28;20082;-53
2023/04/04 07:00:09;;;;;;;7.68;4.65;;;1.70;1.00;;;;;;5051143;28;20020;-56
2023/04/04 07:02:35;;;;;;;9.07;5.60;;;1.60;99.90;;;;;;5051259;28;20053;-57
2023/04/04 07:05:03;;;;;;;4.90;4.28;;;1.70;99.90;;;;;;5051133;28;20055;-51
2023/04/04 07:07:31;;;;;;;8.77;5.22;;;1.70;1.00;;;;;;5054473;28;20379;-53
2023/04/04 07:09:57;;;;;;;8.90;4.70;;;1.70;99.90;;;;;;5055313;28;20045;-49
2023/04/04 07:12:22;;;;;;;6.18;4.80;;;1.80;99.90;;;;;;5055253;28;20084;-56
2023/04/04 07:14:48;;;;;;;7.43;5.35;;;1.80;99.90;;;;;;5055415;28;20029;-54
2023/04/04 07:17:14;;;;;;;8.27;4.15;;;1.80;99.90;;;;;;5055201;28;20032;-56
2023/04/04 07:19:39;;;;;;;8.98;5.15;;;1.80;99.90;;;;;;5055412;28;20021;-57
2023/04/04 07:22:05;;;;;;;5.68;4.63;;;2.00;99.90;;;;;;5053971;28;20025;-57
2023/04/04 07:24:31;;;;;;;7.95;4.95;;;2.10;99.90;;;;;;5055273;28;20075;-53
2023/04/04 07:26:57;;;;;;;8.93;4.72;;;2.20;99.90;;;;;;5055056;28;20025;-55
2023/04/04 07:29:22;;;;;;;5.70;5.10;;;2.40;99.90;;;;;;5055107;28;20449;-55
2023/04/04 07:31:48;;;;;;;14.27;5.45;;;2.50;94.60;;;;;;5055159;28;20032;-56
2023/04/04 07:34:14;;;;;;;7.22;4.38;;;2.60;99.90;;;;;;5055009;28;20032;-52
2023/04/04 07:36:39;;;;;;;11.23;5.28;;;2.50;4.20;;;;;;5055077;28;20030;-53
2023/04/04 07:39:05;;;;;;;9.00;4.32;;;2.50;7.40;;;;;;5054856;28;20025;-56
2023/04/04 07:41:32;;;;;;;6.10;4.35;;;2.70;23.40;;;;;;5055070;28;20112;-52
2023/04/04 07:43:58;;;;;;;4.90;4.22;;;2.80;1.00;;;;;;5054602;28;20082;-55
2023/04/04 07:46:23;;;;;;;5.80;5.20;;;2.90;1.00;;;;;;5054703;28;20029;-51
2023/04/04 07:48:49;;;;;;;5.70;3.65;;;3.10;1.00;;;;;;5054819;28;20025;-53
2023/04/04 07:51:15;;;;;;;9.43;4.30;;;3.10;1.00;;;;;;5054750;28;20029;-52
2023/04/04 07:53:41;;;;;;;7.00;6.30;;;3.30;1.00;;;;;;5054324;28;20100;-53
2023/04/04 07:56:06;;;;;;;6.68;6.07;;;3.50;1.00;;;;;;5054208;28;20468;-52
2023/04/04 07:58:33;;;;;;;8.35;4.97;;;3.80;1.00;;;;;;5054529;28;20444;-49
2023/04/04 08:01:00;;;;;;;5.22;4.50;;;4.00;1.00;;;;;;5054315;28;20100;-55
2023/04/04 08:03:25;;;;;;;5.57;4.30;;;4.10;1.00;;;;;;5054452;28;20029;-51
2023/04/04 08:05:51;;;;;;;6.75;4.40;;;4.10;1.00;;;;;;5053987;28;20028;-52
2023/04/04 08:08:17;;;;;;;5.20;4.70;;;4.00;1.00;;;;;;5054031;28;20651;-53
2023/04/04 08:10:44;;;;;;;5.88;4.15;;;3.80;1.00;;;;;;5052732;28;20052;-55
2023/04/04 08:13:10;;;;;;;4.53;3.97;;;3.60;1.00;;;;;;5053199;28;20055;-56
2023/04/04 08:15:36;;;;;;;8.55;4.57;;;3.80;1.00;;;;;;5053824;28;20566;-57
2023/04/04 08:18:02;;;;;;;5.07;4.50;;;3.60;1.00;;;;;;5052510;28;20037;-56
2023/04/04 08:20:29;;;;;;;6.88;4.22;;;3.40;1.00;;;;;;5054333;28;20090;-51
2023/04/04 08:22:55;;;;;;;6.38;4.55;;;3.60;1.00;;;;;;5054071;28;20027;-47
2023/04/04 08:25:20;;;;;;;10.95;9.73;;;3.70;1.00;;;;;;5053927;28;20108;-56
2023/04/04 08:27:46;;;;;;;6.43;4.75;;;3.70;1.00;;;;;;5053990;28;20716;-49
2023/04/04 08:30:13;;;;;;;9.13;4.93;;;3.90;1.00;;;;;;5053981;28;20060;-53
2023/04/04 08:32:40;;;;;;;8.63;7.88;;;4.00;1.00;;;;;;5054021;28;20045;-55
2023/04/04 08:35:07;;;;;;;9.93;8.18;;;4.10;1.00;;;;;;5053825;28;20021;-51
2023/04/04 08:40:55;;;;;;;5.35;4.25;;;4.10;1.00;;;;;;5053802;28;20032;-57
2023/04/04 08:43:23;;;;;;;6.10;4.60;;;4.10;1.00;;;;;;5053730;28;20017;-49
2023/04/04 08:45:52;;;;;;;8.27;6.00;;;4.10;1.00;;;;;;5053814;28;20119;-52
2023/04/04 08:48:19;;;;;;;6.72;4.45;;;4.00;1.00;;;;;;5053730;28;20508;-54
2023/04/04 08:50:45;;;;;;;4.68;4.15;;;4.10;1.00;;;;;;5052239;28;20445;-52
2023/04/04 08:53:12;;;;;;;5.45;3.90;;;4.10;1.00;;;;;;5053782;28;20036;-52
2023/04/04 08:55:38;;;;;;;5.13;3.85;;;4.30;1.00;;;;;;5053299;28;20021;-53
2023/04/04 08:58:04;;;;;;;6.50;4.07;;;4.10;1.00;;;;;;5052455;28;20036;-51
2023/04/04 09:00:30;;;;;;;8.13;4.75;;;4.10;1.00;;;;;;5052823;28;20491;-54
2023/04/04 09:03:09;;;;;;;5.53;4.03;;;4.40;1.00;;;;;;5052490;28;20042;-55
2023/04/04 09:05:35;;;;;;;4.85;4.00;;;4.40;1.00;;;;;;5052964;28;20472;-48
2023/04/04 09:08:05;;;;;;;6.75;4.85;;;4.40;1.00;;;;;;5053166;28;20036;-57
2023/04/04 09:10:31;;;;;;;7.13;4.50;;;4.20;1.00;;;;;;5053795;28;20023;-49
2023/04/04 09:12:58;;;;;;;6.28;5.28;;;4.00;1.00;;;;;;5053028;28;20049;-51
2023/04/04 09:15:24;;;;;;;4.90;4.13;;;4.00;1.00;;;;;;5053272;28;20029;-54
2023/04/04 09:17:50;;;;;;;4.25;3.85;;;4.00;1.00;;;;;;5053193;28;20115;-53
2023/04/04 09:20:35;;;;;;;4.55;4.15;;;4.10;1.00;;;;;;5053247;28;20112;-54
2023/04/04 09:23:05;;;;;;;7.72;4.15;;;3.90;99.90;;;;;;5052620;28;20017;-53
2023/04/04 09:25:31;;;;;;;6.07;4.50;;;3.80;1.00;;;;;;5052818;28;20154;-53
2023/04/04 09:27:57;;;;;;;5.88;4.40;;;4.40;1.00;;;;;;5052819;28;20112;-51
2023/04/04 09:30:23;;;;;;;11.40;4.25;;;4.80;1.00;;;;;;5052009;28;20025;-53
2023/04/04 09:32:49;;;;;;;5.72;4.72;;;5.10;1.00;;;;;;5042789;28;20116;-52
2023/04/04 09:35:15;;;;;;;5.30;4.55;;;5.00;99.90;;;;;;5032668;28;20141;-54
2023/04/04 09:37:41;;;;;;;5.32;4.32;;;4.90;99.90;;;;;;5032908;28;20026;-56
2023/04/04 09:40:11;;;;;;;5.97;4.00;;;4.90;99.90;;;;;;5032472;28;20025;-49
2023/04/04 09:42:37;;;;;;;5.82;4.20;;;5.10;99.90;;;;;;5032529;28;20099;-53
2023/04/04 09:45:04;;;;;;;4.28;3.88;;;4.90;99.90;;;;;;5032502;28;20029;-53
2023/04/04 09:47:32;;;;;;;5.38;3.70;;;5.00;99.90;;;;;;5032351;28;20030;-55
2023/04/04 09:49:58;;;;;;;4.88;3.63;;;5.20;99.90;;;;;;5032439;28;20022;-55
2023/04/04 09:52:24;;;;;;;6.45;4.82;;;5.50;99.90;;;;;;5032619;28;20014;-54
2023/04/04 09:55:08;;;;;;;5.90;4.10;;;5.60;99.90;;;;;;5033239;28;20147;-55
2023/04/04 09:57:36;;;;;;;4.20;3.80;;;5.60;99.90;;;;;;5032233;28;20025;-52
2023/04/04 10:00:08;;;;;;;5.90;3.47;;;6.00;99.90;;;;;;5032155;28;20025;-56
2023/04/04 10:02:36;;;;;;;8.30;3.92;;;6.20;99.90;;;;;;5032029;28;20026;-52
2023/04/04 10:05:09;;;;;;;7.35;4.50;;;6.30;99.90;;;;;;5031588;28;20025;-53
2023/04/04 10:07:38;;;;;;;6.55;3.90;;;6.30;99.90;;;;;;5030165;28;20453;-57
2023/04/04 10:10:10;;;;;;;6.15;3.70;;;6.60;99.90;;;;;;5031206;28;20370;-54
2023/04/04 10:12:37;;;;;;;12.25;3.50;;;7.60;99.90;;;;;;5031571;28;20433;-55
2023/04/04 10:15:04;;;;;;;4.72;3.45;;;7.40;99.90;;;;;;5031624;28;20026;-54
2023/04/04 10:17:37;;;;;;;4.20;3.80;;;7.00;99.90;;;;;;5030426;28;20392;-55
2023/04/04 10:20:07;;;;;;;10.98;5.18;;;6.70;99.90;;;;;;5031348;28;20087;-52
2023/04/04 10:22:35;;;;;;;40.60;7.80;;;7.00;99.90;;;;;;5031931;28;20024;-54
2023/04/04 10:25:02;;;;;;;7.20;4.32;;;7.40;99.90;;;;;;5031182;28;20021;-53
2023/04/04 10:27:28;;;;;;;6.93;5.53;;;7.50;99.90;;;;;;5031317;28;20030;-56
2023/04/04 10:29:53;;;;;;;14.80;6.07;;;8.10;99.90;;;;;;5031160;28;20021;-55
2023/04/04 10:32:28;;;;;;;5.40;4.35;;;8.20;99.90;;;;;;5031415;28;20064;-52
2023/04/04 10:35:04;;;;;;;5.60;3.45;;;8.60;99.90;;;;;;5030992;28;20052;-53
2023/04/04 10:37:37;;;;;;;8.48;6.57;;;8.60;99.90;;;;;;5031266;28;20025;-56
2023/04/04 10:40:14;;;;;;;5.47;4.95;;;7.80;99.90;;;;;;5031121;28;20080;-57
2023/04/04 10:42:45;;;;;;;6.47;3.78;;;7.30;99.90;;;;;;5031527;28;20468;-56
2023/04/04 10:45:13;;;;;;;7.95;4.00;;;7.30;99.90;;;;;;5031106;28;20036;-50
2023/04/04 10:47:40;;;;;;;5.80;4.40;;;7.20;99.90;;;;;;5031372;28;20048;-51
2023/04/04 10:50:09;;;;;;;5.53;3.30;;;6.80;99.90;;;;;;5031132;28;20021;-54
2023/04/04 10:52:37;;;;;;;7.80;4.18;;;7.20;99.90;;;;;;5031684;28;20022;-57
2023/04/04 10:55:06;;;;;;;6.75;3.17;;;6.90;99.90;;;;;;5031415;28;20040;-52
2023/04/04 10:57:40;;;;;;;7.20;3.30;;;7.10;99.90;;;;;;5031453;28;20112;-57
2023/04/04 11:00:09;;;;;;;3.70;3.25;;;7.30;99.90;;;;;;5031515;28;20061;-52
2023/04/04 11:02:57;;;;;;;3.50;3.20;;;7.10;99.90;;;;;;5031515;28;20017;-51
2023/04/04 11:05:45;;;;;;;5.80;3.40;;;6.90;99.90;;;;;;5031284;28;20029;-53
2023/04/04 11:08:20;;;;;;;5.35;3.60;;;7.40;99.90;;;;;;5031089;28;20032;-57
2023/04/04 11:10:48;;;;;;;5.75;3.38;;;7.80;99.90;;;;;;5030253;28;20022;-50
2023/04/04 11:13:28;;;;;;;3.30;2.90;;;8.80;99.90;;;;;;5031061;28;20045;-57
2023/04/04 11:15:59;;;;;;;5.18;3.03;;;9.80;99.90;;;;;;5031300;28;20032;-51
2023/04/04 11:18:30;;;;;;;4.82;2.78;;;10.60;99.90;;;;;;5031396;28;20044;-57
2023/04/04 11:20:56;;;;;;;3.25;2.95;;;11.90;99.90;;;;;;5031124;28;20120;-54
2023/04/04 11:23:24;;;;;;;9.80;3.00;;;12.50;99.90;;;;;;5031079;28;20104;-56
2023/04/04 11:25:58;;;;;;;2.63;2.35;;;12.90;99.90;;;;;;5031032;28;20026;-54
2023/04/04 11:28:25;;;;;;;3.95;2.50;;;13.10;99.90;;;;;;5031183;28;20500;-54
2023/04/04 11:31:13;;;;;;;8.88;2.80;;;12.70;99.90;;;;;;5030946;28;20060;-57
2023/04/04 11:33:57;;;;;;;5.47;2.83;;;13.20;61.10;;;;;;5031103;28;20021;-55
2023/04/04 11:36:35;;;;;;;6.90;2.78;;;14.20;41.30;;;;;;5031140;28;20021;-57
2023/04/04 11:39:11;;;;;;;3.67;2.78;;;14.70;26.90;;;;;;5030897;28;20087;-56
2023/04/04 11:41:49;;;;;;;5.47;3.35;;;14.70;3.00;;;;;;5030994;28;20018;-56
2023/04/04 11:44:16;;;;;;;3.50;2.45;;;14.40;1.00;;;;;;5030987;28;20053;-59
2023/04/04 11:46:42;;;;;;;5.65;3.58;;;15.00;1.00;;;;;;5031049;28;20106;-58
2023/04/04 11:49:09;;;;;;;3.05;2.30;;;15.20;1.00;;;;;;5030973;28;20148;-56
2023/04/04 11:51:38;;;;;;;8.23;2.92;;;16.40;1.00;;;;;;5031050;28;20018;-54
2023/04/04 11:54:05;;;;;;;5.15;2.97;;;15.00;1.00;;;;;;5034514;28;20025;-58
2023/04/04 11:56:35;;;;;;;6.40;3.13;;;13.00;1.00;;;;;;5034895;28;20412;-55
2023/04/04 11:59:04;;;;;;;4.28;2.60;;;11.90;1.00;;;;;;5034522;28;20026;-58
2023/04/04 12:01:30;;;;;;;4.43;3.20;;;10.60;1.00;;;;;;5034763;28;20366;-58
2023/04/04 12:03:59;;;;;;;4.50;3.33;;;10.60;1.00;;;;;;5034509;28;20041;-53
2023/04/04 12:06:26;;;;;;;4.20;3.30;;;11.50;1.00;;;;;;5034318;28;20396;-54
2023/04/04 12:08:51;;;;;;;5.13;2.92;;;12.90;1.00;;;;;;5034420;28;20449;-59
2023/04/04 12:11:20;;;;;;;3.97;2.70;;;12.40;1.00;;;;;;5034388;28;20026;-55
2023/04/04 12:13:49;;;;;;;7.30;3.95;;;11.40;1.00;;;;;;5034166;28;20129;-56
2023/04/04 12:16:18;;;;;;;10.88;4.68;;;10.10;1.00;;;;;;5034327;28;20361;-56
2023/04/04 12:18:45;;;;;;;7.25;3.72;;;9.00;1.00;;;;;;5034328;28;20100;-58
2023/04/04 12:21:10;;;;;;;6.15;3.53;;;8.20;1.00;;;;;;5034177;28;20027;-56
2023/04/04 12:23:36;;;;;;;6.28;3.58;;;8.20;1.00;;;;;;5034183;28;20388;-56
2023/04/04 12:26:04;;;;;;;4.05;3.08;;;9.30;1.00;;;;;;5034143;28;20026;-55
2023/04/04 12:28:33;;;;;;;8.32;3.28;;;9.60;1.00;;;;;;5034263;28;20025;-54
2023/04/04 12:31:04;;;;;;;6.05;3.20;;;10.10;1.00;;;;;;5034131;28;20070;-58
2023/04/04 12:33:33;;;;;;;5.40;2.90;;;11.20;1.00;;;;;;5034010;28;20087;-55
2023/04/04 12:36:04;;;;;;;6.63;3.75;;;12.30;1.00;;;;;;5033791;28;20057;-58
2023/04/04 12:38:30;;;;;;;4.63;2.65;;;12.90;1.00;;;;;;5034221;28;20021;-57
2023/04/04 12:40:56;;;;;;;3.00;2.30;;;14.70;1.00;;;;;;5033813;28;20025;-57
2023/04/04 12:43:25;;;;;;;4.28;3.22;;;14.80;1.00;;;;;;5033977;28;20033;-59
2023/04/04 12:45:53;;;;;;;5.95;2.38;;;15.10;1.00;;;;;;5033498;28;20036;-57
2023/04/04 12:48:24;;;;;;;4.43;2.83;;;14.30;1.00;;;;;;5033739;28;20021;-58
2023/04/04 12:50:51;;;;;;;6.35;3.33;;;15.70;1.00;;;;;;5033751;28;20151;-58
2023/04/04 12:53:28;;;;;;;9.13;4.97;;;15.80;1.00;;;;;;5033912;28;20010;-58
2023/04/04 12:55:58;;;;;;;5.93;3.33;;;15.50;1.00;;;;;;5033653;28;20500;-58
2023/04/04 12:58:25;;;;;;;4.22;2.80;;;16.20;1.00;;;;;;5033429;28;20025;-58
2023/04/04 13:00:52;;;;;;;3.78;3.03;;;14.90;1.00;;;;;;5033574;28;20021;-56
2023/04/04 13:03:23;;;;;;;6.47;4.68;;;13.00;1.00;;;;;;5031320;28;20714;-55
2023/04/04 13:05:51;;;;;;;9.23;3.08;;;11.60;1.00;;;;;;5033191;28;20056;-57